sensor_id;sensor_type;location;lat;lon;timestamp;P1;durP1;ratioP1;P2;durP2;ratioP2
46889;SDS011;32625;51.080;16.970;2024-03-07T00:00:36;44.95;;;29.20;;
46889;SDS011;32625;51.080;16.970;2024-03-07T00:03:03;44.88;;;27.10;;
46889;SDS011;32625;51.080;16.970;2024-03-07T00:05:30;45.58;;;28.65;;
46889;SDS011;32625;51.080;16.970;2024-03-07T00:07:59;45.28;;;28.65;;
46889;SDS011;32625;51.080;16.970;2024-03-07T00:10:26;42.60;;;27.08;;
46889;SDS011;32625;51.080;16.970;2024-03-07T00:12:53;47.50;;;29.70;;
46889;SDS011;32625;51.080;16.970;2024-03-07T00:15:21;44.55;;;28.80;;
46889;SDS011;32625;51.080;16.970;2024-03-07T00:17:48;49.78;;;29.50;;
46889;SDS011;32625;51.080;16.970;2024-03-07T00:20:15;47.50;;;29.05;;
46889;SDS011;32625;51.080;16.970;2024-03-07T00:22:46;44.35;;;28.77;;
46889;SDS011;32625;51.080;16.970;2024-03-07T00:25:14;46.80;;;28.27;;
46889;SDS011;32625;51.080;16.970;2024-03-07T00:27:46;51.35;;;29.92;;
46889;SDS011;32625;51.080;16.970;2024-03-07T00:30:14;41.13;;;27.83;;
46889;SDS011;32625;51.080;16.970;2024-03-07T00:32:46;44.08;;;27.88;;
46889;SDS011;32625;51.080;16.970;2024-03-07T00:35:14;44.08;;;28.73;;
46889;SDS011;32625;51.080;16.970;2024-03-07T00:37:44;44.95;;;28.90;;
46889;SDS011;32625;51.080;16.970;2024-03-07T00:40:11;48.15;;;29.80;;
46889;SDS011;32625;51.080;16.970;2024-03-07T00:42:39;49.20;;;28.38;;
46889;SDS011;32625;51.080;16.970;2024-03-07T00:45:06;45.83;;;29.77;;
46889;SDS011;32625;51.080;16.970;2024-03-07T00:47:34;42.38;;;27.15;;
46889;SDS011;32625;51.080;16.970;2024-03-07T00:50:01;45.45;;;28.88;;
46889;SDS011;32625;51.080;16.970;2024-03-07T00:52:28;43.60;;;28.27;;
46889;SDS011;32625;51.080;16.970;2024-03-07T00:54:55;44.55;;;26.60;;
46889;SDS011;32625;51.080;16.970;2024-03-07T00:57:22;41.08;;;27.52;;
46889;SDS011;32625;51.080;16.970;2024-03-07T00:59:50;43.60;;;27.33;;
46889;SDS011;32625;51.080;16.970;2024-03-07T01:02:18;43.70;;;27.35;;
46889;SDS011;32625;51.080;16.970;2024-03-07T01:04:46;45.47;;;28.35;;
46889;SDS011;32625;51.080;16.970;2024-03-07T01:07:13;43.10;;;26.70;;
46889;SDS011;32625;51.080;16.970;2024-03-07T01:09:40;42.38;;;25.85;;
46889;SDS011;32625;51.080;16.970;2024-03-07T01:12:07;37.63;;;24.80;;
46889;SDS011;32625;51.080;16.970;2024-03-07T01:14:36;41.30;;;25.88;;
46889;SDS011;32625;51.080;16.970;2024-03-07T01:17:04;42.80;;;25.83;;
46889;SDS011;32625;51.080;16.970;2024-03-07T01:19:34;39.20;;;24.98;;
46889;SDS011;32625;51.080;16.970;2024-03-07T01:22:02;44.38;;;25.67;;
46889;SDS011;32625;51.080;16.970;2024-03-07T01:24:29;39.25;;;25.95;;
46889;SDS011;32625;51.080;16.970;2024-03-07T01:26:57;43.55;;;26.60;;
46889;SDS011;32625;51.080;16.970;2024-03-07T01:29:26;40.75;;;24.98;;
46889;SDS011;32625;51.080;16.970;2024-03-07T01:31:53;40.35;;;24.20;;
46889;SDS011;32625;51.080;16.970;2024-03-07T01:34:20;42.53;;;23.98;;
46889;SDS011;32625;51.080;16.970;2024-03-07T01:36:47;36.40;;;23.90;;
46889;SDS011;32625;51.080;16.970;2024-03-07T01:39:15;39.60;;;23.85;;
46889;SDS011;32625;51.080;16.970;2024-03-07T01:41:42;38.42;;;23.40;;
46889;SDS011;32625;51.080;16.970;2024-03-07T01:44:10;34.50;;;22.75;;
46889;SDS011;32625;51.080;16.970;2024-03-07T01:46:37;44.08;;;24.73;;
46889;SDS011;32625;51.080;16.970;2024-03-07T01:49:04;44.35;;;23.60;;
46889;SDS011;32625;51.080;16.970;2024-03-07T01:51:34;40.38;;;24.27;;
46889;SDS011;32625;51.080;16.970;2024-03-07T01:54:03;39.20;;;24.15;;
46889;SDS011;32625;51.080;16.970;2024-03-07T01:56:34;37.72;;;23.38;;
46889;SDS011;32625;51.080;16.970;2024-03-07T01:59:03;36.13;;;23.20;;
46889;SDS011;32625;51.080;16.970;2024-03-07T02:01:32;36.45;;;23.27;;
46889;SDS011;32625;51.080;16.970;2024-03-07T02:03:59;33.17;;;21.50;;
46889;SDS011;32625;51.080;16.970;2024-03-07T02:06:26;36.95;;;22.45;;
46889;SDS011;32625;51.080;16.970;2024-03-07T02:08:55;36.28;;;23.08;;
46889;SDS011;32625;51.080;16.970;2024-03-07T02:11:23;34.92;;;22.63;;
46889;SDS011;32625;51.080;16.970;2024-03-07T02:13:50;37.83;;;23.88;;
46889;SDS011;32625;51.080;16.970;2024-03-07T02:16:17;35.15;;;21.80;;
46889;SDS011;32625;51.080;16.970;2024-03-07T02:18:44;33.33;;;22.42;;
46889;SDS011;32625;51.080;16.970;2024-03-07T02:21:12;39.83;;;22.70;;
46889;SDS011;32625;51.080;16.970;2024-03-07T02:23:40;37.13;;;23.05;;
46889;SDS011;32625;51.080;16.970;2024-03-07T02:26:07;40.72;;;23.98;;
46889;SDS011;32625;51.080;16.970;2024-03-07T02:28:35;37.67;;;23.42;;
46889;SDS011;32625;51.080;16.970;2024-03-07T02:31:02;33.78;;;21.85;;
46889;SDS011;32625;51.080;16.970;2024-03-07T02:33:29;38.35;;;23.27;;
46889;SDS011;32625;51.080;16.970;2024-03-07T02:35:59;35.97;;;22.27;;
46889;SDS011;32625;51.080;16.970;2024-03-07T02:38:26;39.60;;;23.20;;
46889;SDS011;32625;51.080;16.970;2024-03-07T02:40:53;36.72;;;22.55;;
46889;SDS011;32625;51.080;16.970;2024-03-07T02:43:20;39.40;;;23.58;;
46889;SDS011;32625;51.080;16.970;2024-03-07T02:45:47;37.75;;;23.05;;
46889;SDS011;32625;51.080;16.970;2024-03-07T02:48:16;34.10;;;22.15;;
46889;SDS011;32625;51.080;16.970;2024-03-07T02:50:45;34.95;;;21.45;;
46889;SDS011;32625;51.080;16.970;2024-03-07T02:53:12;35.83;;;22.15;;
46889;SDS011;32625;51.080;16.970;2024-03-07T02:55:39;40.67;;;22.00;;
46889;SDS011;32625;51.080;16.970;2024-03-07T02:58:07;35.60;;;23.00;;
46889;SDS011;32625;51.080;16.970;2024-03-07T03:00:34;36.55;;;22.88;;
46889;SDS011;32625;51.080;16.970;2024-03-07T03:03:02;36.53;;;21.15;;
46889;SDS011;32625;51.080;16.970;2024-03-07T03:05:29;35.45;;;22.25;;
46889;SDS011;32625;51.080;16.970;2024-03-07T03:07:56;39.17;;;23.15;;
46889;SDS011;32625;51.080;16.970;2024-03-07T03:10:24;36.20;;;21.55;;
46889;SDS011;32625;51.080;16.970;2024-03-07T03:12:59;37.17;;;22.02;;
46889;SDS011;32625;51.080;16.970;2024-03-07T03:15:28;37.72;;;23.30;;
46889;SDS011;32625;51.080;16.970;2024-03-07T03:17:57;38.08;;;22.85;;
46889;SDS011;32625;51.080;16.970;2024-03-07T03:20:28;34.35;;;22.05;;
46889;SDS011;32625;51.080;16.970;2024-03-07T03:23:02;33.60;;;20.88;;
46889;SDS011;32625;51.080;16.970;2024-03-07T03:25:45;35.28;;;22.73;;
46889;SDS011;32625;51.080;16.970;2024-03-07T03:28:15;36.60;;;21.67;;
46889;SDS011;32625;51.080;16.970;2024-03-07T03:30:46;33.20;;;20.83;;
46889;SDS011;32625;51.080;16.970;2024-03-07T03:33:14;36.63;;;21.90;;
46889;SDS011;32625;51.080;16.970;2024-03-07T03:35:44;34.85;;;21.27;;
46889;SDS011;32625;51.080;16.970;2024-03-07T03:38:11;32.83;;;20.85;;
46889;SDS011;32625;51.080;16.970;2024-03-07T03:40:39;34.15;;;21.38;;
46889;SDS011;32625;51.080;16.970;2024-03-07T03:43:06;35.70;;;22.20;;
46889;SDS011;32625;51.080;16.970;2024-03-07T03:45:33;43.75;;;22.98;;
46889;SDS011;32625;51.080;16.970;2024-03-07T03:48:01;35.30;;;21.42;;
46889;SDS011;32625;51.080;16.970;2024-03-07T03:50:29;37.20;;;23.15;;
46889;SDS011;32625;51.080;16.970;2024-03-07T03:52:56;36.53;;;22.50;;
46889;SDS011;32625;51.080;16.970;2024-03-07T03:55:24;36.33;;;22.13;;
46889;SDS011;32625;51.080;16.970;2024-03-07T03:57:51;38.70;;;21.60;;
46889;SDS011;32625;51.080;16.970;2024-03-07T04:00:18;38.60;;;22.48;;
46889;SDS011;32625;51.080;16.970;2024-03-07T04:02:46;35.72;;;21.92;;
46889;SDS011;32625;51.080;16.970;2024-03-07T04:05:17;36.88;;;20.75;;
46889;SDS011;32625;51.080;16.970;2024-03-07T04:07:46;34.03;;;21.77;;
46889;SDS011;32625;51.080;16.970;2024-03-07T04:10:14;41.63;;;22.73;;
46889;SDS011;32625;51.080;16.970;2024-03-07T04:12:43;40.22;;;22.65;;
46889;SDS011;32625;51.080;16.970;2024-03-07T04:15:11;36.13;;;22.55;;
46889;SDS011;32625;51.080;16.970;2024-03-07T04:17:40;37.42;;;22.23;;
46889;SDS011;32625;51.080;16.970;2024-03-07T04:20:07;38.08;;;22.63;;
46889;SDS011;32625;51.080;16.970;2024-03-07T04:22:37;36.78;;;23.23;;
46889;SDS011;32625;51.080;16.970;2024-03-07T04:25:07;34.05;;;21.90;;
46889;SDS011;32625;51.080;16.970;2024-03-07T04:27:36;37.85;;;22.95;;
46889;SDS011;32625;51.080;16.970;2024-03-07T04:30:04;38.75;;;22.63;;
46889;SDS011;32625;51.080;16.970;2024-03-07T04:32:31;37.72;;;23.10;;
46889;SDS011;32625;51.080;16.970;2024-03-07T04:35:00;37.63;;;24.38;;
46889;SDS011;32625;51.080;16.970;2024-03-07T04:37:30;34.95;;;23.17;;
46889;SDS011;32625;51.080;16.970;2024-03-07T04:39:57;41.60;;;23.35;;
46889;SDS011;32625;51.080;16.970;2024-03-07T04:42:24;36.67;;;23.35;;
46889;SDS011;32625;51.080;16.970;2024-03-07T04:44:52;36.97;;;23.70;;
46889;SDS011;32625;51.080;16.970;2024-03-07T04:47:19;43.97;;;25.60;;
46889;SDS011;32625;51.080;16.970;2024-03-07T04:49:46;39.42;;;23.60;;
46889;SDS011;32625;51.080;16.970;2024-03-07T04:52:13;37.13;;;23.65;;
46889;SDS011;32625;51.080;16.970;2024-03-07T04:54:40;34.95;;;22.67;;
46889;SDS011;32625;51.080;16.970;2024-03-07T04:57:07;40.88;;;24.15;;
46889;SDS011;32625;51.080;16.970;2024-03-07T04:59:34;39.28;;;23.85;;
46889;SDS011;32625;51.080;16.970;2024-03-07T05:02:01;37.22;;;21.98;;
46889;SDS011;32625;51.080;16.970;2024-03-07T05:04:28;35.35;;;22.02;;
46889;SDS011;32625;51.080;16.970;2024-03-07T05:06:56;41.58;;;22.02;;
46889;SDS011;32625;51.080;16.970;2024-03-07T05:09:24;37.58;;;23.05;;
46889;SDS011;32625;51.080;16.970;2024-03-07T05:11:53;38.88;;;24.35;;
46889;SDS011;32625;51.080;16.970;2024-03-07T05:14:20;32.72;;;21.98;;
46889;SDS011;32625;51.080;16.970;2024-03-07T05:16:52;37.30;;;23.88;;
46889;SDS011;32625;51.080;16.970;2024-03-07T05:19:32;39.88;;;23.45;;
46889;SDS011;32625;51.080;16.970;2024-03-07T05:22:00;37.83;;;23.90;;
46889;SDS011;32625;51.080;16.970;2024-03-07T05:24:28;34.95;;;23.05;;
46889;SDS011;32625;51.080;16.970;2024-03-07T05:26:55;38.13;;;22.88;;
46889;SDS011;32625;51.080;16.970;2024-03-07T05:29:23;37.50;;;23.08;;
46889;SDS011;32625;51.080;16.970;2024-03-07T05:31:50;42.63;;;23.13;;
46889;SDS011;32625;51.080;16.970;2024-03-07T05:34:17;39.47;;;23.83;;
46889;SDS011;32625;51.080;16.970;2024-03-07T05:36:50;39.35;;;22.70;;
46889;SDS011;32625;51.080;16.970;2024-03-07T05:39:17;41.15;;;22.70;;
46889;SDS011;32625;51.080;16.970;2024-03-07T05:41:45;33.30;;;22.33;;
46889;SDS011;32625;51.080;16.970;2024-03-07T05:44:13;40.25;;;23.70;;
46889;SDS011;32625;51.080;16.970;2024-03-07T05:46:41;37.90;;;22.50;;
46889;SDS011;32625;51.080;16.970;2024-03-07T05:49:16;35.28;;;22.90;;
46889;SDS011;32625;51.080;16.970;2024-03-07T05:51:46;34.55;;;22.33;;
46889;SDS011;32625;51.080;16.970;2024-03-07T05:54:13;38.83;;;22.48;;
46889;SDS011;32625;51.080;16.970;2024-03-07T05:56:41;37.38;;;23.80;;
46889;SDS011;32625;51.080;16.970;2024-03-07T05:59:08;36.20;;;23.20;;
46889;SDS011;32625;51.080;16.970;2024-03-07T06:01:36;35.05;;;21.98;;
46889;SDS011;32625;51.080;16.970;2024-03-07T06:04:04;35.22;;;22.33;;
46889;SDS011;32625;51.080;16.970;2024-03-07T06:06:33;36.50;;;22.60;;
46889;SDS011;32625;51.080;16.970;2024-03-07T06:09:06;36.30;;;21.92;;
46889;SDS011;32625;51.080;16.970;2024-03-07T06:11:35;34.13;;;22.17;;
46889;SDS011;32625;51.080;16.970;2024-03-07T06:14:03;33.67;;;22.00;;
46889;SDS011;32625;51.080;16.970;2024-03-07T06:16:35;37.13;;;22.45;;
46889;SDS011;32625;51.080;16.970;2024-03-07T06:19:03;29.80;;;21.35;;
46889;SDS011;32625;51.080;16.970;2024-03-07T06:21:34;31.92;;;21.50;;
46889;SDS011;32625;51.080;16.970;2024-03-07T06:24:02;29.65;;;20.98;;
46889;SDS011;32625;51.080;16.970;2024-03-07T06:26:31;33.72;;;21.85;;
46889;SDS011;32625;51.080;16.970;2024-03-07T06:29:13;30.05;;;20.30;;
46889;SDS011;32625;51.080;16.970;2024-03-07T06:31:43;32.30;;;20.38;;
46889;SDS011;32625;51.080;16.970;2024-03-07T06:34:13;31.33;;;19.65;;
46889;SDS011;32625;51.080;16.970;2024-03-07T06:36:40;32.67;;;19.42;;
46889;SDS011;32625;51.080;16.970;2024-03-07T06:39:07;31.55;;;20.42;;
46889;SDS011;32625;51.080;16.970;2024-03-07T06:41:37;32.72;;;19.60;;
46889;SDS011;32625;51.080;16.970;2024-03-07T06:44:04;31.48;;;19.95;;
46889;SDS011;32625;51.080;16.970;2024-03-07T06:46:32;29.20;;;19.63;;
46889;SDS011;32625;51.080;16.970;2024-03-07T06:49:00;31.02;;;19.42;;
46889;SDS011;32625;51.080;16.970;2024-03-07T06:51:27;30.80;;;18.77;;
46889;SDS011;32625;51.080;16.970;2024-03-07T06:53:55;29.80;;;18.73;;
46889;SDS011;32625;51.080;16.970;2024-03-07T06:56:23;27.42;;;18.33;;
46889;SDS011;32625;51.080;16.970;2024-03-07T06:58:52;28.27;;;18.42;;
46889;SDS011;32625;51.080;16.970;2024-03-07T07:01:20;29.08;;;19.83;;
46889;SDS011;32625;51.080;16.970;2024-03-07T07:03:47;29.85;;;19.27;;
46889;SDS011;32625;51.080;16.970;2024-03-07T07:06:15;30.48;;;17.98;;
46889;SDS011;32625;51.080;16.970;2024-03-07T07:08:43;30.30;;;19.15;;
46889;SDS011;32625;51.080;16.970;2024-03-07T07:11:12;30.33;;;19.83;;
46889;SDS011;32625;51.080;16.970;2024-03-07T07:13:39;27.88;;;19.15;;
46889;SDS011;32625;51.080;16.970;2024-03-07T07:16:08;30.17;;;19.65;;
46889;SDS011;32625;51.080;16.970;2024-03-07T07:18:36;32.50;;;20.15;;
46889;SDS011;32625;51.080;16.970;2024-03-07T07:21:05;31.60;;;19.65;;
46889;SDS011;32625;51.080;16.970;2024-03-07T07:23:37;30.05;;;19.30;;
46889;SDS011;32625;51.080;16.970;2024-03-07T07:26:05;25.90;;;18.42;;
46889;SDS011;32625;51.080;16.970;2024-03-07T07:28:32;28.02;;;19.42;;
46889;SDS011;32625;51.080;16.970;2024-03-07T07:30:59;28.92;;;19.30;;
46889;SDS011;32625;51.080;16.970;2024-03-07T07:33:26;31.75;;;19.98;;
46889;SDS011;32625;51.080;16.970;2024-03-07T07:35:53;29.10;;;19.13;;
46889;SDS011;32625;51.080;16.970;2024-03-07T07:38:21;28.95;;;20.75;;
46889;SDS011;32625;51.080;16.970;2024-03-07T07:40:48;32.40;;;21.20;;
46889;SDS011;32625;51.080;16.970;2024-03-07T07:43:16;34.50;;;20.17;;
46889;SDS011;32625;51.080;16.970;2024-03-07T07:45:58;32.53;;;19.65;;
46889;SDS011;32625;51.080;16.970;2024-03-07T07:48:27;30.50;;;20.58;;
46889;SDS011;32625;51.080;16.970;2024-03-07T07:50:54;36.75;;;20.17;;
46889;SDS011;32625;51.080;16.970;2024-03-07T07:53:21;35.30;;;19.23;;
46889;SDS011;32625;51.080;16.970;2024-03-07T07:55:48;27.58;;;18.58;;
46889;SDS011;32625;51.080;16.970;2024-03-07T07:58:15;30.52;;;19.48;;
46889;SDS011;32625;51.080;16.970;2024-03-07T08:00:43;27.65;;;18.67;;
46889;SDS011;32625;51.080;16.970;2024-03-07T08:03:10;26.73;;;18.98;;
46889;SDS011;32625;51.080;16.970;2024-03-07T08:05:37;32.08;;;20.15;;
46889;SDS011;32625;51.080;16.970;2024-03-07T08:08:06;29.85;;;19.73;;
46889;SDS011;32625;51.080;16.970;2024-03-07T08:10:35;30.17;;;20.92;;
46889;SDS011;32625;51.080;16.970;2024-03-07T08:13:03;36.45;;;20.77;;
46889;SDS011;32625;51.080;16.970;2024-03-07T08:15:34;30.55;;;19.40;;
46889;SDS011;32625;51.080;16.970;2024-03-07T08:18:02;29.42;;;19.60;;
46889;SDS011;32625;51.080;16.970;2024-03-07T08:20:36;28.13;;;18.63;;
46889;SDS011;32625;51.080;16.970;2024-03-07T08:23:03;31.48;;;20.33;;
46889;SDS011;32625;51.080;16.970;2024-03-07T08:25:30;29.30;;;18.02;;
46889;SDS011;32625;51.080;16.970;2024-03-07T08:27:58;26.15;;;18.27;;
46889;SDS011;32625;51.080;16.970;2024-03-07T08:30:25;25.33;;;19.23;;
46889;SDS011;32625;51.080;16.970;2024-03-07T08:32:56;25.77;;;18.83;;
46889;SDS011;32625;51.080;16.970;2024-03-07T08:35:25;29.67;;;20.48;;
46889;SDS011;32625;51.080;16.970;2024-03-07T08:37:53;25.08;;;18.05;;
46889;SDS011;32625;51.080;16.970;2024-03-07T08:40:25;27.90;;;19.52;;
46889;SDS011;32625;51.080;16.970;2024-03-07T08:42:58;31.27;;;19.98;;
46889;SDS011;32625;51.080;16.970;2024-03-07T08:45:26;27.30;;;18.83;;
46889;SDS011;32625;51.080;16.970;2024-03-07T08:47:54;28.35;;;19.80;;
46889;SDS011;32625;51.080;16.970;2024-03-07T08:50:25;28.52;;;19.88;;
46889;SDS011;32625;51.080;16.970;2024-03-07T08:52:54;23.83;;;16.27;;
46889;SDS011;32625;51.080;16.970;2024-03-07T08:55:24;22.42;;;16.73;;
46889;SDS011;32625;51.080;16.970;2024-03-07T08:57:52;27.55;;;17.88;;
46889;SDS011;32625;51.080;16.970;2024-03-07T09:00:20;24.38;;;17.17;;
46889;SDS011;32625;51.080;16.970;2024-03-07T09:02:53;25.55;;;17.00;;
46889;SDS011;32625;51.080;16.970;2024-03-07T09:05:27;26.20;;;18.70;;
46889;SDS011;32625;51.080;16.970;2024-03-07T09:07:54;25.58;;;18.00;;
46889;SDS011;32625;51.080;16.970;2024-03-07T09:10:21;26.42;;;17.80;;
46889;SDS011;32625;51.080;16.970;2024-03-07T09:12:51;26.60;;;19.25;;
46889;SDS011;32625;51.080;16.970;2024-03-07T09:15:19;25.27;;;18.25;;
46889;SDS011;32625;51.080;16.970;2024-03-07T09:17:49;25.30;;;17.75;;
46889;SDS011;32625;51.080;16.970;2024-03-07T09:20:16;28.77;;;18.83;;
46889;SDS011;32625;51.080;16.970;2024-03-07T09:22:46;29.23;;;19.98;;
46889;SDS011;32625;51.080;16.970;2024-03-07T09:25:22;28.27;;;19.13;;
46889;SDS011;32625;51.080;16.970;2024-03-07T09:27:51;29.77;;;19.52;;
46889;SDS011;32625;51.080;16.970;2024-03-07T09:30:19;26.30;;;19.15;;
46889;SDS011;32625;51.080;16.970;2024-03-07T09:32:50;29.27;;;19.83;;
46889;SDS011;32625;51.080;16.970;2024-03-07T09:35:18;29.48;;;20.65;;
46889;SDS011;32625;51.080;16.970;2024-03-07T09:37:45;31.95;;;20.05;;
46889;SDS011;32625;51.080;16.970;2024-03-07T09:40:13;29.35;;;20.30;;
46889;SDS011;32625;51.080;16.970;2024-03-07T09:42:42;32.42;;;21.05;;
46889;SDS011;32625;51.080;16.970;2024-03-07T09:45:22;29.33;;;20.58;;
46889;SDS011;32625;51.080;16.970;2024-03-07T09:47:56;31.57;;;20.37;;
46889;SDS011;32625;51.080;16.970;2024-03-07T09:50:24;25.75;;;19.23;;
46889;SDS011;32625;51.080;16.970;2024-03-07T09:52:55;29.17;;;19.95;;
46889;SDS011;32625;51.080;16.970;2024-03-07T09:55:24;30.25;;;20.75;;
46889;SDS011;32625;51.080;16.970;2024-03-07T09:57:53;32.25;;;20.30;;
46889;SDS011;32625;51.080;16.970;2024-03-07T10:00:24;31.23;;;19.92;;
46889;SDS011;32625;51.080;16.970;2024-03-07T10:05:28;30.58;;;20.45;;
46889;SDS011;32625;51.080;16.970;2024-03-07T10:07:58;30.85;;;20.02;;
46889;SDS011;32625;51.080;16.970;2024-03-07T10:10:25;26.92;;;19.33;;
46889;SDS011;32625;51.080;16.970;2024-03-07T10:12:53;28.55;;;19.00;;
46889;SDS011;32625;51.080;16.970;2024-03-07T10:15:20;27.08;;;19.52;;
46889;SDS011;32625;51.080;16.970;2024-03-07T10:17:49;30.50;;;20.65;;
46889;SDS011;32625;51.080;16.970;2024-03-07T10:20:18;29.98;;;20.38;;
46889;SDS011;32625;51.080;16.970;2024-03-07T10:22:49;28.75;;;20.08;;
46889;SDS011;32625;51.080;16.970;2024-03-07T10:25:20;25.05;;;18.45;;
46889;SDS011;32625;51.080;16.970;2024-03-07T10:27:56;28.10;;;19.00;;
46889;SDS011;32625;51.080;16.970;2024-03-07T10:30:25;31.15;;;18.98;;
46889;SDS011;32625;51.080;16.970;2024-03-07T10:32:54;30.23;;;20.83;;
46889;SDS011;32625;51.080;16.970;2024-03-07T10:35:28;31.33;;;21.52;;
46889;SDS011;32625;51.080;16.970;2024-03-07T10:37:57;30.13;;;21.05;;
46889;SDS011;32625;51.080;16.970;2024-03-07T10:40:34;38.45;;;22.13;;
46889;SDS011;32625;51.080;16.970;2024-03-07T10:43:11;32.47;;;23.00;;
46889;SDS011;32625;51.080;16.970;2024-03-07T10:45:45;34.88;;;21.88;;
46889;SDS011;32625;51.080;16.970;2024-03-07T10:48:16;31.77;;;21.67;;
46889;SDS011;32625;51.080;16.970;2024-03-07T10:51:11;32.45;;;21.60;;
46889;SDS011;32625;51.080;16.970;2024-03-07T10:56:53;33.58;;;22.38;;
46889;SDS011;32625;51.080;16.970;2024-03-07T10:59:35;33.03;;;21.02;;
46889;SDS011;32625;51.080;16.970;2024-03-07T11:02:15;29.65;;;20.52;;
46889;SDS011;32625;51.080;16.970;2024-03-07T11:04:57;26.40;;;19.25;;
46889;SDS011;32625;51.080;16.970;2024-03-07T11:07:25;27.77;;;18.85;;
46889;SDS011;32625;51.080;16.970;2024-03-07T11:09:54;27.30;;;18.38;;
46889;SDS011;32625;51.080;16.970;2024-03-07T11:12:22;31.42;;;19.13;;
46889;SDS011;32625;51.080;16.970;2024-03-07T11:14:50;27.58;;;18.20;;
46889;SDS011;32625;51.080;16.970;2024-03-07T11:17:19;25.60;;;18.58;;
46889;SDS011;32625;51.080;16.970;2024-03-07T11:19:49;30.98;;;20.70;;
46889;SDS011;32625;51.080;16.970;2024-03-07T11:22:31;31.38;;;21.58;;
46889;SDS011;32625;51.080;16.970;2024-03-07T11:25:04;29.75;;;20.42;;
46889;SDS011;32625;51.080;16.970;2024-03-07T11:27:37;32.25;;;20.75;;
46889;SDS011;32625;51.080;16.970;2024-03-07T11:30:06;25.90;;;18.42;;
46889;SDS011;32625;51.080;16.970;2024-03-07T11:32:35;28.55;;;19.85;;
46889;SDS011;32625;51.080;16.970;2024-03-07T11:35:13;25.73;;;17.67;;
46889;SDS011;32625;51.080;16.970;2024-03-07T11:37:41;30.08;;;18.60;;
46889;SDS011;32625;51.080;16.970;2024-03-07T11:42:51;28.58;;;18.25;;
46889;SDS011;32625;51.080;16.970;2024-03-07T11:45:20;29.15;;;18.35;;
46889;SDS011;32625;51.080;16.970;2024-03-07T11:47:59;25.60;;;17.48;;
46889;SDS011;32625;51.080;16.970;2024-03-07T11:50:40;27.42;;;18.23;;
46889;SDS011;32625;51.080;16.970;2024-03-07T11:53:07;26.80;;;17.50;;
46889;SDS011;32625;51.080;16.970;2024-03-07T11:55:36;22.17;;;17.00;;
46889;SDS011;32625;51.080;16.970;2024-03-07T11:58:15;24.50;;;16.52;;
46889;SDS011;32625;51.080;16.970;2024-03-07T12:00:43;25.70;;;17.45;;
46889;SDS011;32625;51.080;16.970;2024-03-07T12:03:12;27.90;;;17.40;;
46889;SDS011;32625;51.080;16.970;2024-03-07T12:05:40;27.17;;;18.10;;
46889;SDS011;32625;51.080;16.970;2024-03-07T12:08:08;25.25;;;16.80;;
46889;SDS011;32625;51.080;16.970;2024-03-07T12:10:37;25.10;;;17.15;;
46889;SDS011;32625;51.080;16.970;2024-03-07T12:13:06;22.58;;;16.13;;
46889;SDS011;32625;51.080;16.970;2024-03-07T12:15:33;24.83;;;16.05;;
46889;SDS011;32625;51.080;16.970;2024-03-07T12:18:02;23.45;;;15.57;;
46889;SDS011;32625;51.080;16.970;2024-03-07T12:20:30;21.00;;;15.95;;
46889;SDS011;32625;51.080;16.970;2024-03-07T12:23:00;24.23;;;15.98;;
46889;SDS011;32625;51.080;16.970;2024-03-07T12:25:29;23.52;;;15.88;;
46889;SDS011;32625;51.080;16.970;2024-03-07T12:28:00;20.23;;;15.15;;
46889;SDS011;32625;51.080;16.970;2024-03-07T12:30:32;19.85;;;15.18;;
46889;SDS011;32625;51.080;16.970;2024-03-07T12:33:01;21.90;;;15.75;;
46889;SDS011;32625;51.080;16.970;2024-03-07T12:35:34;21.15;;;14.50;;
46889;SDS011;32625;51.080;16.970;2024-03-07T12:38:02;22.80;;;15.15;;
46889;SDS011;32625;51.080;16.970;2024-03-07T12:40:30;23.80;;;15.38;;
46889;SDS011;32625;51.080;16.970;2024-03-07T12:43:00;21.92;;;15.32;;
46889;SDS011;32625;51.080;16.970;2024-03-07T12:45:28;24.95;;;16.00;;
46889;SDS011;32625;51.080;16.970;2024-03-07T12:47:59;26.33;;;14.43;;
46889;SDS011;32625;51.080;16.970;2024-03-07T12:50:31;22.90;;;15.60;;
46889;SDS011;32625;51.080;16.970;2024-03-07T12:53:01;21.77;;;15.98;;
46889;SDS011;32625;51.080;16.970;2024-03-07T12:55:32;21.98;;;15.75;;
46889;SDS011;32625;51.080;16.970;2024-03-07T12:57:59;25.38;;;16.25;;
46889;SDS011;32625;51.080;16.970;2024-03-07T13:00:26;24.10;;;16.15;;
46889;SDS011;32625;51.080;16.970;2024-03-07T13:02:56;18.10;;;14.35;;
46889;SDS011;32625;51.080;16.970;2024-03-07T13:05:24;20.75;;;15.20;;
46889;SDS011;32625;51.080;16.970;2024-03-07T13:07:52;23.45;;;16.42;;
46889;SDS011;32625;51.080;16.970;2024-03-07T13:10:20;25.70;;;18.52;;
46889;SDS011;32625;51.080;16.970;2024-03-07T13:12:47;21.38;;;15.55;;
46889;SDS011;32625;51.080;16.970;2024-03-07T13:15:18;19.92;;;14.50;;
46889;SDS011;32625;51.080;16.970;2024-03-07T13:17:49;22.10;;;15.30;;
46889;SDS011;32625;51.080;16.970;2024-03-07T13:20:20;20.90;;;13.40;;
46889;SDS011;32625;51.080;16.970;2024-03-07T13:22:53;19.80;;;13.57;;
46889;SDS011;32625;51.080;16.970;2024-03-07T13:25:20;20.20;;;14.23;;
46889;SDS011;32625;51.080;16.970;2024-03-07T13:27:56;18.13;;;13.27;;
46889;SDS011;32625;51.080;16.970;2024-03-07T13:30:28;20.63;;;14.13;;
46889;SDS011;32625;51.080;16.970;2024-03-07T13:32:56;20.88;;;13.90;;
46889;SDS011;32625;51.080;16.970;2024-03-07T13:35:24;19.23;;;13.80;;
46889;SDS011;32625;51.080;16.970;2024-03-07T13:37:53;24.23;;;15.00;;
46889;SDS011;32625;51.080;16.970;2024-03-07T13:40:22;20.30;;;14.82;;
46889;SDS011;32625;51.080;16.970;2024-03-07T13:42:51;21.70;;;14.50;;
46889;SDS011;32625;51.080;16.970;2024-03-07T13:45:20;20.15;;;14.38;;
46889;SDS011;32625;51.080;16.970;2024-03-07T13:47:49;24.63;;;15.50;;
46889;SDS011;32625;51.080;16.970;2024-03-07T13:50:19;20.92;;;14.77;;
46889;SDS011;32625;51.080;16.970;2024-03-07T13:53:08;24.23;;;17.13;;
46889;SDS011;32625;51.080;16.970;2024-03-07T13:55:52;23.27;;;16.42;;
46889;SDS011;32625;51.080;16.970;2024-03-07T14:06:52;23.10;;;15.77;;
46889;SDS011;32625;51.080;16.970;2024-03-07T14:24:05;24.58;;;16.98;;
46889;SDS011;32625;51.080;16.970;2024-03-07T14:32:54;26.10;;;17.30;;
46889;SDS011;32625;51.080;16.970;2024-03-07T14:35:31;23.42;;;16.92;;
46889;SDS011;32625;51.080;16.970;2024-03-07T14:38:29;24.02;;;16.42;;
46889;SDS011;32625;51.080;16.970;2024-03-07T14:41:08;27.63;;;16.30;;
46889;SDS011;32625;51.080;16.970;2024-03-07T14:43:38;22.88;;;16.17;;
46889;SDS011;32625;51.080;16.970;2024-03-07T14:46:08;23.88;;;16.17;;
46889;SDS011;32625;51.080;16.970;2024-03-07T14:48:39;23.88;;;15.65;;
46889;SDS011;32625;51.080;16.970;2024-03-07T14:51:07;25.83;;;15.00;;
46889;SDS011;32625;51.080;16.970;2024-03-07T14:53:40;24.13;;;15.82;;
46889;SDS011;32625;51.080;16.970;2024-03-07T14:56:08;22.98;;;15.85;;
46889;SDS011;32625;51.080;16.970;2024-03-07T14:58:38;23.45;;;15.38;;